sensor_id;sensor_type;location;lat;lon;timestamp;pressure;altitude;pressure_sealevel;temperature;humidity
23733;BME280;12047;53.450;-2.286;2023-09-08T00:03:32;101365.06;;;27.28;100.00
23733;BME280;12047;53.450;-2.286;2023-09-08T00:08:33;101370.19;;;27.36;100.00
23733;BME280;12047;53.450;-2.286;2023-09-08T00:13:34;101362.16;;;27.41;100.00
23733;BME280;12047;53.450;-2.286;2023-09-08T00:18:34;101364.00;;;27.59;100.00
23733;BME280;12047;53.450;-2.286;2023-09-08T00:23:35;101362.03;;;27.48;100.00
23733;BME280;12047;53.450;-2.286;2023-09-08T00:28:36;101359.31;;;27.36;100.00
23733;BME280;12047;53.450;-2.286;2023-09-08T00:33:36;101348.06;;;27.33;100.00
23733;BME280;12047;53.450;-2.286;2023-09-08T00:38:37;101346.38;;;26.90;100.00
23733;BME280;12047;53.450;-2.286;2023-09-08T00:43:38;101339.03;;;26.91;100.00
23733;BME280;12047;53.450;-2.286;2023-09-08T00:48:39;101341.25;;;27.12;100.00
23733;BME280;12047;53.450;-2.286;2023-09-08T00:53:42;101335.44;;;26.97;100.00
23733;BME280;12047;53.450;-2.286;2023-09-08T00:58:43;101328.31;;;26.96;100.00
23733;BME280;12047;53.450;-2.286;2023-09-08T01:03:44;101341.75;;;26.91;100.00
23733;BME280;12047;53.450;-2.286;2023-09-08T01:08:45;101332.94;;;26.77;100.00
23733;BME280;12047;53.450;-2.286;2023-09-08T01:13:45;101329.88;;;27.03;100.00
23733;BME280;12047;53.450;-2.286;2023-09-08T01:18:46;101330.63;;;26.62;100.00
23733;BME280;12047;53.450;-2.286;2023-09-08T01:29:09;101323.19;;;26.39;100.00
23733;BME280;12047;53.450;-2.286;2023-09-08T01:34:11;101318.47;;;26.65;100.00
23733;BME280;12047;53.450;-2.286;2023-09-08T01:39:12;101330.38;;;26.27;100.00
23733;BME280;12047;53.450;-2.286;2023-09-08T01:44:12;101327.84;;;26.14;100.00
23733;BME280;12047;53.450;-2.286;2023-09-08T01:49:13;101322.84;;;26.11;100.00
23733;BME280;12047;53.450;-2.286;2023-09-08T01:54:13;101335.66;;;26.04;100.00
23733;BME280;12047;53.450;-2.286;2023-09-08T01:59:14;101332.78;;;25.99;100.00
23733;BME280;12047;53.450;-2.286;2023-09-08T02:04:14;101324.72;;;26.10;100.00
23733;BME280;12047;53.450;-2.286;2023-09-08T02:09:15;101318.28;;;25.62;100.00
23733;BME280;12047;53.450;-2.286;2023-09-08T02:14:15;101313.47;;;25.89;100.00
23733;BME280;12047;53.450;-2.286;2023-09-08T02:19:16;101309.25;;;25.93;100.00
23733;BME280;12047;53.450;-2.286;2023-09-08T02:24:16;101303.63;;;25.94;100.00
23733;BME280;12047;53.450;-2.286;2023-09-08T02:29:17;101311.47;;;25.77;100.00
23733;BME280;12047;53.450;-2.286;2023-09-08T02:34:17;101304.44;;;25.95;100.00
23733;BME280;12047;53.450;-2.286;2023-09-08T02:39:18;101303.91;;;25.86;100.00
23733;BME280;12047;53.450;-2.286;2023-09-08T02:44:18;101312.72;;;26.00;100.00
23733;BME280;12047;53.450;-2.286;2023-09-08T02:49:19;101308.63;;;25.72;100.00
23733;BME280;12047;53.450;-2.286;2023-09-08T02:54:19;101320.81;;;25.63;100.00
23733;BME280;12047;53.450;-2.286;2023-09-08T02:59:20;101323.31;;;25.58;100.00
23733;BME280;12047;53.450;-2.286;2023-09-08T03:04:21;101320.00;;;25.56;100.00
23733;BME280;12047;53.450;-2.286;2023-09-08T03:09:21;101316.41;;;25.37;100.00
23733;BME280;12047;53.450;-2.286;2023-09-08T03:14:22;101321.84;;;25.62;100.00
23733;BME280;12047;53.450;-2.286;2023-09-08T03:19:22;101311.25;;;25.54;100.00
23733;BME280;12047;53.450;-2.286;2023-09-08T03:24:22;101309.31;;;25.12;100.00
23733;BME280;12047;53.450;-2.286;2023-09-08T03:29:23;101302.81;;;25.44;100.00
23733;BME280;12047;53.450;-2.286;2023-09-08T03:34:23;101294.75;;;25.31;100.00
23733;BME280;12047;53.450;-2.286;2023-09-08T03:39:24;101290.22;;;25.25;100.00
23733;BME280;12047;53.450;-2.286;2023-09-08T03:44:24;101294.13;;;25.04;100.00
23733;BME280;12047;53.450;-2.286;2023-09-08T03:49:25;101299.59;;;24.97;100.00
23733;BME280;12047;53.450;-2.286;2023-09-08T03:54:25;101292.84;;;25.06;100.00
23733;BME280;12047;53.450;-2.286;2023-09-08T03:59:26;101303.41;;;24.83;100.00
23733;BME280;12047;53.450;-2.286;2023-09-08T04:04:26;101302.66;;;25.07;100.00
23733;BME280;12047;53.450;-2.286;2023-09-08T04:09:27;101295.13;;;25.09;100.00
23733;BME280;12047;53.450;-2.286;2023-09-08T04:14:28;101295.63;;;24.93;100.00
23733;BME280;12047;53.450;-2.286;2023-09-08T04:19:30;101312.34;;;24.97;100.00
23733;BME280;12047;53.450;-2.286;2023-09-08T04:24:35;101307.19;;;24.75;100.00
23733;BME280;12047;53.450;-2.286;2023-09-08T04:29:35;101299.44;;;24.48;100.00
23733;BME280;12047;53.450;-2.286;2023-09-08T04:34:40;101307.66;;;24.72;100.00
23733;BME280;12047;53.450;-2.286;2023-09-08T04:39:41;101314.72;;;24.73;100.00
23733;BME280;12047;53.450;-2.286;2023-09-08T04:44:41;101311.03;;;24.61;100.00
23733;BME280;12047;53.450;-2.286;2023-09-08T04:49:42;101326.31;;;24.87;100.00
23733;BME280;12047;53.450;-2.286;2023-09-08T04:54:42;101334.81;;;24.53;100.00
23733;BME280;12047;53.450;-2.286;2023-09-08T04:59:43;101334.38;;;24.62;100.00
23733;BME280;12047;53.450;-2.286;2023-09-08T05:04:43;101342.41;;;24.11;100.00
23733;BME280;12047;53.450;-2.286;2023-09-08T05:09:44;101341.00;;;23.95;100.00
23733;BME280;12047;53.450;-2.286;2023-09-08T05:14:44;101336.81;;;24.06;100.00
23733;BME280;12047;53.450;-2.286;2023-09-08T05:19:45;101338.41;;;24.47;100.00
23733;BME280;12047;53.450;-2.286;2023-09-08T05:24:45;101341.16;;;24.27;100.00
23733;BME280;12047;53.450;-2.286;2023-09-08T05:29:46;101339.38;;;24.59;100.00
23733;BME280;12047;53.450;-2.286;2023-09-08T05:34:46;101351.91;;;24.53;100.00
23733;BME280;12047;53.450;-2.286;2023-09-08T05:39:46;101354.47;;;24.41;100.00
23733;BME280;12047;53.450;-2.286;2023-09-08T05:44:47;101352.78;;;24.40;100.00
23733;BME280;12047;53.450;-2.286;2023-09-08T05:49:48;101350.16;;;23.81;100.00
23733;BME280;12047;53.450;-2.286;2023-09-08T05:54:48;101347.84;;;24.24;100.00
23733;BME280;12047;53.450;-2.286;2023-09-08T05:59:49;101355.91;;;24.44;100.00
23733;BME280;12047;53.450;-2.286;2023-09-08T06:04:49;101361.56;;;24.36;100.00
23733;BME280;12047;53.450;-2.286;2023-09-08T06:09:50;101364.28;;;24.29;100.00
23733;BME280;12047;53.450;-2.286;2023-09-08T06:14:50;101355.03;;;24.50;100.00
23733;BME280;12047;53.450;-2.286;2023-09-08T06:19:50;101359.69;;;24.36;100.00
23733;BME280;12047;53.450;-2.286;2023-09-08T06:24:51;101348.31;;;23.68;100.00
23733;BME280;12047;53.450;-2.286;2023-09-08T06:29:52;101350.63;;;24.62;100.00
23733;BME280;12047;53.450;-2.286;2023-09-08T06:34:53;101358.53;;;24.64;100.00
23733;BME280;12047;53.450;-2.286;2023-09-08T06:39:54;101370.31;;;24.89;100.00
23733;BME280;12047;53.450;-2.286;2023-09-08T06:44:55;101361.19;;;23.93;100.00
23733;BME280;12047;53.450;-2.286;2023-09-08T06:49:55;101373.44;;;24.28;100.00
23733;BME280;12047;53.450;-2.286;2023-09-08T06:54:56;101374.28;;;24.87;100.00
23733;BME280;12047;53.450;-2.286;2023-09-08T06:59:56;101377.63;;;24.24;100.00
23733;BME280;12047;53.450;-2.286;2023-09-08T07:04:56;101381.69;;;25.11;100.00
23733;BME280;12047;53.450;-2.286;2023-09-08T07:09:57;101391.66;;;25.17;100.00
23733;BME280;12047;53.450;-2.286;2023-09-08T07:14:58;101405.06;;;25.43;100.00
23733;BME280;12047;53.450;-2.286;2023-09-08T07:19:59;101400.16;;;25.27;100.00
23733;BME280;12047;53.450;-2.286;2023-09-08T07:25:00;101405.06;;;25.05;100.00
23733;BME280;12047;53.450;-2.286;2023-09-08T07:30:01;101394.84;;;25.07;100.00
23733;BME280;12047;53.450;-2.286;2023-09-08T07:35:01;101399.63;;;25.12;100.00
23733;BME280;12047;53.450;-2.286;2023-09-08T07:40:02;101399.72;;;24.86;100.00
23733;BME280;12047;53.450;-2.286;2023-09-08T07:45:03;101408.50;;;25.57;100.00
23733;BME280;12047;53.450;-2.286;2023-09-08T07:50:22;101389.72;;;25.56;100.00
23733;BME280;12047;53.450;-2.286;2023-09-08T07:55:24;101390.94;;;25.91;100.00
23733;BME280;12047;53.450;-2.286;2023-09-08T08:00:27;101386.34;;;25.67;100.00
23733;BME280;12047;53.450;-2.286;2023-09-08T08:05:27;101392.38;;;25.94;100.00
23733;BME280;12047;53.450;-2.286;2023-09-08T08:10:28;101390.88;;;26.41;100.00
23733;BME280;12047;53.450;-2.286;2023-09-08T08:15:39;101393.28;;;26.31;100.00
23733;BME280;12047;53.450;-2.286;2023-09-08T08:20:40;101395.19;;;26.67;100.00
23733;BME280;12047;53.450;-2.286;2023-09-08T08:25:40;101387.00;;;26.85;100.00
23733;BME280;12047;53.450;-2.286;2023-09-08T08:30:41;101394.03;;;26.93;100.00
23733;BME280;12047;53.450;-2.286;2023-09-08T08:35:41;101389.31;;;26.70;100.00
23733;BME280;12047;53.450;-2.286;2023-09-08T08:40:48;101391.31;;;26.93;100.00
23733;BME280;12047;53.450;-2.286;2023-09-08T08:45:49;101397.03;;;27.33;100.00
23733;BME280;12047;53.450;-2.286;2023-09-08T08:50:50;101393.00;;;26.39;100.00
23733;BME280;12047;53.450;-2.286;2023-09-08T08:55:55;101397.81;;;26.55;100.00
23733;BME280;12047;53.450;-2.286;2023-09-08T09:00:59;101398.72;;;26.86;100.00
23733;BME280;12047;53.450;-2.286;2023-09-08T09:06:00;101396.63;;;26.26;100.00
23733;BME280;12047;53.450;-2.286;2023-09-08T09:11:01;101398.25;;;26.89;100.00
23733;BME280;12047;53.450;-2.286;2023-09-08T09:16:02;101408.66;;;27.70;100.00
23733;BME280;12047;53.450;-2.286;2023-09-08T09:21:03;101411.63;;;27.50;100.00
23733;BME280;12047;53.450;-2.286;2023-09-08T09:26:04;101427.19;;;27.61;100.00
23733;BME280;12047;53.450;-2.286;2023-09-08T09:31:06;101413.75;;;28.13;100.00
23733;BME280;12047;53.450;-2.286;2023-09-08T09:36:06;101417.38;;;27.72;100.00
23733;BME280;12047;53.450;-2.286;2023-09-08T09:41:09;101409.06;;;28.20;100.00
23733;BME280;12047;53.450;-2.286;2023-09-08T09:46:10;101410.47;;;28.34;100.00
23733;BME280;12047;53.450;-2.286;2023-09-08T09:51:17;101410.69;;;28.44;100.00
23733;BME280;12047;53.450;-2.286;2023-09-08T09:56:20;101405.28;;;28.73;100.00
23733;BME280;12047;53.450;-2.286;2023-09-08T10:01:24;101410.78;;;28.61;100.00
23733;BME280;12047;53.450;-2.286;2023-09-08T10:06:26;101400.56;;;28.68;100.00
23733;BME280;12047;53.450;-2.286;2023-09-08T10:11:28;101397.75;;;28.52;100.00
23733;BME280;12047;53.450;-2.286;2023-09-08T10:16:31;101402.53;;;28.44;100.00
23733;BME280;12047;53.450;-2.286;2023-09-08T10:21:59;101399.81;;;28.73;100.00
23733;BME280;12047;53.450;-2.286;2023-09-08T10:27:10;101398.78;;;28.62;100.00
23733;BME280;12047;53.450;-2.286;2023-09-08T10:32:11;101392.59;;;29.19;100.00
23733;BME280;12047;53.450;-2.286;2023-09-08T10:37:24;101401.94;;;28.94;100.00
23733;BME280;12047;53.450;-2.286;2023-09-08T10:42:25;101408.47;;;30.00;100.00
23733;BME280;12047;53.450;-2.286;2023-09-08T10:47:54;101404.78;;;30.28;100.00
23733;BME280;12047;53.450;-2.286;2023-09-08T10:53:18;101400.28;;;30.17;100.00
23733;BME280;12047;53.450;-2.286;2023-09-08T10:58:36;101401.50;;;30.09;100.00
23733;BME280;12047;53.450;-2.286;2023-09-08T11:08:42;101393.63;;;29.79;100.00
23733;BME280;12047;53.450;-2.286;2023-09-08T11:13:43;101402.56;;;30.25;100.00
23733;BME280;12047;53.450;-2.286;2023-09-08T11:18:47;101392.09;;;29.67;100.00
23733;BME280;12047;53.450;-2.286;2023-09-08T11:23:47;101389.19;;;30.07;100.00
23733;BME280;12047;53.450;-2.286;2023-09-08T11:28:48;101386.84;;;29.99;100.00
23733;BME280;12047;53.450;-2.286;2023-09-08T11:33:54;101394.56;;;29.68;100.00
23733;BME280;12047;53.450;-2.286;2023-09-08T11:38:55;101385.63;;;29.56;100.00
23733;BME280;12047;53.450;-2.286;2023-09-08T11:43:55;101377.00;;;29.81;100.00
23733;BME280;12047;53.450;-2.286;2023-09-08T11:48:56;101380.19;;;29.95;100.00
23733;BME280;12047;53.450;-2.286;2023-09-08T11:53:56;101385.66;;;29.95;100.00
23733;BME280;12047;53.450;-2.286;2023-09-08T11:58:57;101383.72;;;30.07;100.00
23733;BME280;12047;53.450;-2.286;2023-09-08T12:03:58;101388.47;;;30.33;100.00
23733;BME280;12047;53.450;-2.286;2023-09-08T12:09:02;101389.66;;;31.08;100.00
23733;BME280;12047;53.450;-2.286;2023-09-08T12:14:07;101397.13;;;31.39;100.00
23733;BME280;12047;53.450;-2.286;2023-09-08T12:19:09;101397.19;;;30.96;100.00
23733;BME280;12047;53.450;-2.286;2023-09-08T12:30:06;101378.66;;;31.03;100.00
23733;BME280;12047;53.450;-2.286;2023-09-08T12:35:08;101366.06;;;31.02;100.00
23733;BME280;12047;53.450;-2.286;2023-09-08T12:40:09;101368.38;;;31.74;100.00
23733;BME280;12047;53.450;-2.286;2023-09-08T12:45:10;101363.81;;;31.85;100.00
23733;BME280;12047;53.450;-2.286;2023-09-08T12:50:10;101377.09;;;31.66;100.00
23733;BME280;12047;53.450;-2.286;2023-09-08T12:55:11;101366.25;;;31.81;100.00
23733;BME280;12047;53.450;-2.286;2023-09-08T13:00:12;101370.25;;;31.68;100.00
23733;BME280;12047;53.450;-2.286;2023-09-08T13:05:12;101373.47;;;32.34;100.00
23733;BME280;12047;53.450;-2.286;2023-09-08T13:10:13;101364.38;;;31.55;100.00
23733;BME280;12047;53.450;-2.286;2023-09-08T13:15:14;101366.91;;;32.45;100.00
23733;BME280;12047;53.450;-2.286;2023-09-08T13:20:15;101365.78;;;31.57;100.00
23733;BME280;12047;53.450;-2.286;2023-09-08T13:25:15;101357.09;;;32.55;100.00
23733;BME280;12047;53.450;-2.286;2023-09-08T13:30:16;101355.22;;;32.13;100.00
23733;BME280;12047;53.450;-2.286;2023-09-08T13:35:16;101345.16;;;32.24;100.00
23733;BME280;12047;53.450;-2.286;2023-09-08T13:40:17;101342.63;;;32.74;100.00
23733;BME280;12047;53.450;-2.286;2023-09-08T13:45:18;101340.44;;;32.14;100.00
23733;BME280;12047;53.450;-2.286;2023-09-08T13:50:18;101334.25;;;32.44;100.00
23733;BME280;12047;53.450;-2.286;2023-09-08T13:55:19;101325.50;;;32.47;100.00
23733;BME280;12047;53.450;-2.286;2023-09-08T14:00:24;101325.09;;;32.86;100.00
23733;BME280;12047;53.450;-2.286;2023-09-08T14:05:25;101315.97;;;32.70;100.00
23733;BME280;12047;53.450;-2.286;2023-09-08T14:10:25;101315.41;;;32.63;100.00
23733;BME280;12047;53.450;-2.286;2023-09-08T14:15:26;101318.66;;;32.50;100.00
23733;BME280;12047;53.450;-2.286;2023-09-08T14:20:26;101323.19;;;33.22;100.00
23733;BME280;12047;53.450;-2.286;2023-09-08T14:25:27;101303.16;;;33.01;100.00
23733;BME280;12047;53.450;-2.286;2023-09-08T14:30:27;101308.97;;;33.30;100.00
23733;BME280;12047;53.450;-2.286;2023-09-08T14:35:27;101304.53;;;33.13;100.00
23733;BME280;12047;53.450;-2.286;2023-09-08T14:40:28;101307.59;;;33.27;100.00
23733;BME280;12047;53.450;-2.286;2023-09-08T14:45:28;101307.31;;;33.39;100.00
23733;BME280;12047;53.450;-2.286;2023-09-08T14:50:29;101313.34;;;33.46;100.00
23733;BME280;12047;53.450;-2.286;2023-09-08T14:55:30;101300.19;;;33.33;100.00
23733;BME280;12047;53.450;-2.286;2023-09-08T15:00:33;101299.31;;;32.87;100.00
23733;BME280;12047;53.450;-2.286;2023-09-08T15:05:34;101298.25;;;33.38;100.00
23733;BME280;12047;53.450;-2.286;2023-09-08T15:10:35;101288.63;;;33.51;100.00
23733;BME280;12047;53.450;-2.286;2023-09-08T15:15:35;101294.06;;;33.87;100.00
23733;BME280;12047;53.450;-2.286;2023-09-08T15:20:36;101280.91;;;33.63;100.00
23733;BME280;12047;53.450;-2.286;2023-09-08T15:25:36;101281.44;;;33.70;100.00
23733;BME280;12047;53.450;-2.286;2023-09-08T15:30:37;101278.69;;;33.86;100.00
23733;BME280;12047;53.450;-2.286;2023-09-08T15:35:37;101283.34;;;33.90;100.00
23733;BME280;12047;53.450;-2.286;2023-09-08T15:40:38;101277.91;;;33.50;100.00
23733;BME280;12047;53.450;-2.286;2023-09-08T15:45:54;101277.31;;;33.68;100.00
23733;BME280;12047;53.450;-2.286;2023-09-08T15:50:55;101268.81;;;33.59;100.00
23733;BME280;12047;53.450;-2.286;2023-09-08T15:55:56;101265.16;;;33.99;100.00
23733;BME280;12047;53.450;-2.286;2023-09-08T16:00:56;101257.34;;;34.22;100.00
23733;BME280;12047;53.450;-2.286;2023-09-08T16:05:57;101262.03;;;34.21;100.00
23733;BME280;12047;53.450;-2.286;2023-09-08T16:10:59;101263.84;;;33.71;100.00
23733;BME280;12047;53.450;-2.286;2023-09-08T16:16:01;101256.72;;;33.60;100.00
23733;BME280;12047;53.450;-2.286;2023-09-08T16:21:01;101261.94;;;33.82;100.00
23733;BME280;12047;53.450;-2.286;2023-09-08T16:26:02;101257.84;;;33.44;100.00
23733;BME280;12047;53.450;-2.286;2023-09-08T16:31:04;101261.91;;;33.72;100.00
23733;BME280;12047;53.450;-2.286;2023-09-08T16:36:05;101265.53;;;33.52;100.00
23733;BME280;12047;53.450;-2.286;2023-09-08T16:41:06;101264.94;;;33.75;100.00
23733;BME280;12047;53.450;-2.286;2023-09-08T16:46:06;101259.75;;;33.64;100.00
23733;BME280;12047;53.450;-2.286;2023-09-08T16:51:07;101259.53;;;33.40;100.00
23733;BME280;12047;53.450;-2.286;2023-09-08T16:56:07;101258.13;;;33.47;100.00
23733;BME280;12047;53.450;-2.286;2023-09-08T17:01:09;101250.41;;;33.60;100.00
23733;BME280;12047;53.450;-2.286;2023-09-08T17:06:10;101245.50;;;32.86;100.00
23733;BME280;12047;53.450;-2.286;2023-09-08T17:11:11;101254.56;;;32.96;100.00
23733;BME280;12047;53.450;-2.286;2023-09-08T17:16:12;101250.44;;;32.94;100.00
23733;BME280;12047;53.450;-2.286;2023-09-08T17:21:12;101257.25;;;32.71;100.00
23733;BME280;12047;53.450;-2.286;2023-09-08T17:26:12;101253.47;;;33.02;100.00
23733;BME280;12047;53.450;-2.286;2023-09-08T17:31:13;101250.06;;;32.39;100.00
23733;BME280;12047;53.450;-2.286;2023-09-08T17:36:13;101251.03;;;32.18;100.00
23733;BME280;12047;53.450;-2.286;2023-09-08T17:41:14;101258.69;;;32.84;100.00
23733;BME280;12047;53.450;-2.286;2023-09-08T17:46:14;101262.41;;;32.37;100.00
23733;BME280;12047;53.450;-2.286;2023-09-08T17:51:15;101265.22;;;32.00;100.00
23733;BME280;12047;53.450;-2.286;2023-09-08T17:56:15;101272.59;;;32.57;100.00
23733;BME280;12047;53.450;-2.286;2023-09-08T18:01:16;101266.19;;;32.26;100.00
23733;BME280;12047;53.450;-2.286;2023-09-08T18:06:16;101267.53;;;32.23;100.00
23733;BME280;12047;53.450;-2.286;2023-09-08T18:11:17;101262.09;;;32.33;100.00
23733;BME280;12047;53.450;-2.286;2023-09-08T18:16:19;101265.75;;;31.92;100.00
23733;BME280;12047;53.450;-2.286;2023-09-08T18:21:20;101278.44;;;32.08;100.00
23733;BME280;12047;53.450;-2.286;2023-09-08T18:26:20;101273.44;;;32.00;100.00
23733;BME280;12047;53.450;-2.286;2023-09-08T18:31:21;101282.13;;;31.82;100.00
23733;BME280;12047;53.450;-2.286;2023-09-08T18:36:21;101280.38;;;31.65;100.00
23733;BME280;12047;53.450;-2.286;2023-09-08T18:41:24;101284.59;;;31.46;100.00
23733;BME280;12047;53.450;-2.286;2023-09-08T18:46:32;101286.19;;;31.37;100.00
23733;BME280;12047;53.450;-2.286;2023-09-08T18:51:45;101284.59;;;31.41;100.00
23733;BME280;12047;53.450;-2.286;2023-09-08T18:56:49;101294.44;;;30.83;100.00
23733;BME280;12047;53.450;-2.286;2023-09-08T19:01:49;101300.47;;;30.58;100.00
23733;BME280;12047;53.450;-2.286;2023-09-08T19:06:50;101294.28;;;30.95;100.00
23733;BME280;12047;53.450;-2.286;2023-09-08T19:11:50;101296.84;;;31.06;100.00
23733;BME280;12047;53.450;-2.286;2023-09-08T19:16:51;101300.16;;;30.82;100.00
23733;BME280;12047;53.450;-2.286;2023-09-08T19:21:55;101302.59;;;31.32;100.00
23733;BME280;12047;53.450;-2.286;2023-09-08T19:26:56;101300.34;;;31.29;100.00
23733;BME280;12047;53.450;-2.286;2023-09-08T19:31:56;101300.50;;;31.12;100.00
23733;BME280;12047;53.450;-2.286;2023-09-08T19:36:57;101300.69;;;30.78;100.00
23733;BME280;12047;53.450;-2.286;2023-09-08T19:42:01;101305.63;;;31.08;100.00
23733;BME280;12047;53.450;-2.286;2023-09-08T19:47:02;101305.84;;;31.02;100.00
23733;BME280;12047;53.450;-2.286;2023-09-08T19:52:03;101311.50;;;30.95;100.00
23733;BME280;12047;53.450;-2.286;2023-09-08T19:57:04;101311.75;;;30.89;100.00
23733;BME280;12047;53.450;-2.286;2023-09-08T20:02:06;101301.38;;;30.91;100.00
23733;BME280;12047;53.450;-2.286;2023-09-08T20:07:07;101311.34;;;30.31;100.00
23733;BME280;12047;53.450;-2.286;2023-09-08T20:12:07;101307.16;;;30.67;100.00
23733;BME280;12047;53.450;-2.286;2023-09-08T20:17:08;101317.47;;;30.60;100.00
23733;BME280;12047;53.450;-2.286;2023-09-08T20:27:57;101319.88;;;30.57;100.00
23733;BME280;12047;53.450;-2.286;2023-09-08T20:33:00;101319.94;;;30.62;100.00
23733;BME280;12047;53.450;-2.286;2023-09-08T20:38:02;101322.00;;;30.55;100.00
23733;BME280;12047;53.450;-2.286;2023-09-08T20:43:03;101324.03;;;29.82;100.00
23733;BME280;12047;53.450;-2.286;2023-09-08T20:48:04;101317.88;;;30.30;100.00
23733;BME280;12047;53.450;-2.286;2023-09-08T20:53:05;101320.84;;;30.07;100.00
23733;BME280;12047;53.450;-2.286;2023-09-08T20:58:05;101315.88;;;30.04;100.00
23733;BME280;12047;53.450;-2.286;2023-09-08T21:03:06;101318.94;;;29.69;100.00
23733;BME280;12047;53.450;-2.286;2023-09-08T21:08:06;101308.28;;;30.06;100.00
23733;BME280;12047;53.450;-2.286;2023-09-08T21:13:07;101312.28;;;30.20;100.00
23733;BME280;12047;53.450;-2.286;2023-09-08T21:18:08;101310.13;;;30.22;100.00
23733;BME280;12047;53.450;-2.286;2023-09-08T21:23:12;101310.19;;;29.89;100.00
23733;BME280;12047;53.450;-2.286;2023-09-08T21:28:25;101307.13;;;30.24;100.00
23733;BME280;12047;53.450;-2.286;2023-09-08T21:33:26;101306.97;;;29.92;100.00
23733;BME280;12047;53.450;-2.286;2023-09-08T22:01:49;101299.81;;;29.69;100.00
23733;BME280;12047;53.450;-2.286;2023-09-08T22:06:50;101285.50;;;29.45;100.00
23733;BME280;12047;53.450;-2.286;2023-09-08T22:11:50;101293.09;;;29.60;100.00
23733;BME280;12047;53.450;-2.286;2023-09-08T22:16:51;101290.28;;;29.38;100.00
23733;BME280;12047;53.450;-2.286;2023-09-08T22:21:52;101300.25;;;29.44;100.00
23733;BME280;12047;53.450;-2.286;2023-09-08T22:26:52;101306.59;;;29.66;100.00
23733;BME280;12047;53.450;-2.286;2023-09-08T22:31:53;101308.00;;;29.69;100.00
23733;BME280;12047;53.450;-2.286;2023-09-08T22:36:53;101300.53;;;29.14;100.00
23733;BME280;12047;53.450;-2.286;2023-09-08T22:41:54;101284.06;;;29.26;100.00
23733;BME280;12047;53.450;-2.286;2023-09-08T22:46:58;101288.28;;;29.17;100.00
23733;BME280;12047;53.450;-2.286;2023-09-08T22:51:58;101280.16;;;29.22;100.00
23733;BME280;12047;53.450;-2.286;2023-09-08T22:56:59;101298.72;;;29.20;100.00
23733;BME280;12047;53.450;-2.286;2023-09-08T23:02:00;101298.69;;;29.03;100.00
23733;BME280;12047;53.450;-2.286;2023-09-08T23:07:01;101299.69;;;29.30;100.00
23733;BME280;12047;53.450;-2.286;2023-09-08T23:12:02;101304.88;;;28.98;100.00
23733;BME280;12047;53.450;-2.286;2023-09-08T23:17:04;101306.38;;;29.06;100.00
23733;BME280;12047;53.450;-2.286;2023-09-08T23:22:05;101299.41;;;28.98;100.00
23733;BME280;12047;53.450;-2.286;2023-09-08T23:27:05;101305.03;;;28.92;100.00
23733;BME280;12047;53.450;-2.286;2023-09-08T23:32:06;101294.72;;;28.94;100.00
23733;BME280;12047;53.450;-2.286;2023-09-08T23:37:06;101288.00;;;29.01;100.00
23733;BME280;12047;53.450;-2.286;2023-09-08T23:42:06;101280.91;;;29.00;100.00
23733;BME280;12047;53.450;-2.286;2023-09-08T23:47:08;101275.94;;;28.97;100.00
23733;BME280;12047;53.450;-2.286;2023-09-08T23:52:08;101279.69;;;28.79;100.00
23733;BME280;12047;53.450;-2.286;2023-09-08T23:57:09;101283.09;;;28.18;100.00
